sensor_id;sensor_type;location;lat;lon;timestamp;temperature;humidity
51837;DHT22;38941;53.254;6.600;2023-04-12T00:00:35;7.40;99.90
51837;DHT22;38941;53.254;6.600;2023-04-12T00:02:38;7.40;99.90
51837;DHT22;38941;53.254;6.600;2023-04-12T00:04:40;7.30;99.90
51837;DHT22;38941;53.254;6.600;2023-04-12T00:06:42;6.10;99.90
51837;DHT22;38941;53.254;6.600;2023-04-12T00:08:47;7.60;99.90
51837;DHT22;38941;53.254;6.600;2023-04-12T00:10:52;7.30;99.90
51837;DHT22;38941;53.254;6.600;2023-04-12T00:12:53;7.30;99.90
51837;DHT22;38941;53.254;6.600;2023-04-12T00:14:53;7.30;99.90
51837;DHT22;38941;53.254;6.600;2023-04-12T00:16:54;7.20;99.90
51837;DHT22;38941;53.254;6.600;2023-04-12T00:18:55;7.30;99.90
51837;DHT22;38941;53.254;6.600;2023-04-12T00:20:58;7.20;99.90
51837;DHT22;38941;53.254;6.600;2023-04-12T00:22:59;7.30;99.90
51837;DHT22;38941;53.254;6.600;2023-04-12T00:25:04;7.30;99.90
51837;DHT22;38941;53.254;6.600;2023-04-12T00:27:08;7.30;99.90
51837;DHT22;38941;53.254;6.600;2023-04-12T00:29:15;7.30;99.90
51837;DHT22;38941;53.254;6.600;2023-04-12T00:31:16;7.30;99.90
51837;DHT22;38941;53.254;6.600;2023-04-12T00:33:17;7.30;99.90
51837;DHT22;38941;53.254;6.600;2023-04-12T00:35:18;7.30;99.90
51837;DHT22;38941;53.254;6.600;2023-04-12T00:37:21;7.30;99.90
51837;DHT22;38941;53.254;6.600;2023-04-12T00:39:22;7.30;99.90
51837;DHT22;38941;53.254;6.600;2023-04-12T00:41:22;7.40;99.90
51837;DHT22;38941;53.254;6.600;2023-04-12T00:43:30;7.70;99.90
51837;DHT22;38941;53.254;6.600;2023-04-12T00:45:33;7.30;99.90
51837;DHT22;38941;53.254;6.600;2023-04-12T00:47:34;6.20;99.90
51837;DHT22;38941;53.254;6.600;2023-04-12T00:49:38;7.30;99.90
51837;DHT22;38941;53.254;6.600;2023-04-12T00:51:40;7.30;99.90
51837;DHT22;38941;53.254;6.600;2023-04-12T00:53:42;7.40;99.90
51837;DHT22;38941;53.254;6.600;2023-04-12T00:55:44;7.30;99.90
51837;DHT22;38941;53.254;6.600;2023-04-12T00:57:56;7.30;99.90
51837;DHT22;38941;53.254;6.600;2023-04-12T00:59:58;7.30;99.90
51837;DHT22;38941;53.254;6.600;2023-04-12T01:01:59;7.30;99.90
51837;DHT22;38941;53.254;6.600;2023-04-12T01:04:01;7.30;99.90
51837;DHT22;38941;53.254;6.600;2023-04-12T01:11:12;7.40;99.90
51837;DHT22;38941;53.254;6.600;2023-04-12T01:13:35;8.00;99.90
51837;DHT22;38941;53.254;6.600;2023-04-12T01:15:52;7.40;99.90
51837;DHT22;38941;53.254;6.600;2023-04-12T01:18:13;7.40;99.90
51837;DHT22;38941;53.254;6.600;2023-04-12T01:20:32;7.40;99.90
51837;DHT22;38941;53.254;6.600;2023-04-12T01:25:20;7.30;99.90
51837;DHT22;38941;53.254;6.600;2023-04-12T01:27:38;7.50;99.90
51837;DHT22;38941;53.254;6.600;2023-04-12T01:29:40;7.50;99.90
51837;DHT22;38941;53.254;6.600;2023-04-12T01:31:53;7.50;99.90
51837;DHT22;38941;53.254;6.600;2023-04-12T01:34:04;7.50;99.90
51837;DHT22;38941;53.254;6.600;2023-04-12T01:36:14;7.50;99.90
51837;DHT22;38941;53.254;6.600;2023-04-12T01:38:19;7.50;99.90
51837;DHT22;38941;53.254;6.600;2023-04-12T01:40:30;7.50;99.90
51837;DHT22;38941;53.254;6.600;2023-04-12T01:42:31;7.50;99.90
51837;DHT22;38941;53.254;6.600;2023-04-12T01:44:33;7.60;99.90
51837;DHT22;38941;53.254;6.600;2023-04-12T01:46:34;8.30;99.90
51837;DHT22;38941;53.254;6.600;2023-04-12T01:48:37;7.60;99.90
51837;DHT22;38941;53.254;6.600;2023-04-12T01:56:49;7.70;99.90
51837;DHT22;38941;53.254;6.600;2023-04-12T02:01:45;7.70;99.90
51837;DHT22;38941;53.254;6.600;2023-04-12T02:03:53;7.70;99.90
51837;DHT22;38941;53.254;6.600;2023-04-12T02:05:57;7.70;99.90
51837;DHT22;38941;53.254;6.600;2023-04-12T02:08:01;7.80;99.90
51837;DHT22;38941;53.254;6.600;2023-04-12T02:10:05;7.80;99.90
51837;DHT22;38941;53.254;6.600;2023-04-12T02:12:08;7.80;99.90
51837;DHT22;38941;53.254;6.600;2023-04-12T02:14:09;7.80;99.90
51837;DHT22;38941;53.254;6.600;2023-04-12T02:16:11;7.80;99.90
51837;DHT22;38941;53.254;6.600;2023-04-12T02:18:14;7.90;99.90
51837;DHT22;38941;53.254;6.600;2023-04-12T02:20:16;7.90;99.90
51837;DHT22;38941;53.254;6.600;2023-04-12T02:22:24;7.90;99.90
51837;DHT22;38941;53.254;6.600;2023-04-12T02:24:25;8.70;99.90
51837;DHT22;38941;53.254;6.600;2023-04-12T02:26:26;8.00;99.90
51837;DHT22;38941;53.254;6.600;2023-04-12T02:28:29;8.00;99.90
51837;DHT22;38941;53.254;6.600;2023-04-12T02:30:30;8.00;99.90
51837;DHT22;38941;53.254;6.600;2023-04-12T02:32:32;8.00;99.90
51837;DHT22;38941;53.254;6.600;2023-04-12T02:34:45;8.10;99.90
51837;DHT22;38941;53.254;6.600;2023-04-12T02:36:55;8.10;99.90
51837;DHT22;38941;53.254;6.600;2023-04-12T02:38:56;8.10;99.90
51837;DHT22;38941;53.254;6.600;2023-04-12T02:40:59;8.20;99.90
51837;DHT22;38941;53.254;6.600;2023-04-12T02:43:00;8.10;99.90
51837;DHT22;38941;53.254;6.600;2023-04-12T02:45:02;8.10;99.90
51837;DHT22;38941;53.254;6.600;2023-04-12T02:47:04;8.20;99.90
51837;DHT22;38941;53.254;6.600;2023-04-12T02:49:07;8.20;99.90
51837;DHT22;38941;53.254;6.600;2023-04-12T02:51:11;8.20;99.90
51837;DHT22;38941;53.254;6.600;2023-04-12T02:53:12;8.10;99.90
51837;DHT22;38941;53.254;6.600;2023-04-12T02:55:14;8.20;99.90
51837;DHT22;38941;53.254;6.600;2023-04-12T02:57:16;8.10;99.90
51837;DHT22;38941;53.254;6.600;2023-04-12T02:59:17;8.10;99.90
51837;DHT22;38941;53.254;6.600;2023-04-12T03:01:19;8.00;99.90
51837;DHT22;38941;53.254;6.600;2023-04-12T03:03:20;8.10;99.90
51837;DHT22;38941;53.254;6.600;2023-04-12T03:05:22;6.90;99.90
51837;DHT22;38941;53.254;6.600;2023-04-12T03:07:24;8.10;99.90
51837;DHT22;38941;53.254;6.600;2023-04-12T03:09:25;8.10;99.90
51837;DHT22;38941;53.254;6.600;2023-04-12T03:11:28;8.10;99.90
51837;DHT22;38941;53.254;6.600;2023-04-12T03:13:33;8.10;99.90
51837;DHT22;38941;53.254;6.600;2023-04-12T03:15:37;8.00;99.90
51837;DHT22;38941;53.254;6.600;2023-04-12T03:17:38;8.00;99.90
51837;DHT22;38941;53.254;6.600;2023-04-12T03:19:38;8.00;99.90
51837;DHT22;38941;53.254;6.600;2023-04-12T03:21:45;8.00;99.90
51837;DHT22;38941;53.254;6.600;2023-04-12T03:23:46;8.00;99.90
51837;DHT22;38941;53.254;6.600;2023-04-12T03:25:46;8.00;99.90
51837;DHT22;38941;53.254;6.600;2023-04-12T03:27:48;8.00;99.90
51837;DHT22;38941;53.254;6.600;2023-04-12T03:29:50;7.70;99.90
51837;DHT22;38941;53.254;6.600;2023-04-12T03:31:51;8.00;99.90
51837;DHT22;38941;53.254;6.600;2023-04-12T03:33:53;8.10;99.90
51837;DHT22;38941;53.254;6.600;2023-04-12T03:35:56;8.10;99.90
51837;DHT22;38941;53.254;6.600;2023-04-12T03:38:03;8.10;99.90
51837;DHT22;38941;53.254;6.600;2023-04-12T03:40:05;7.60;99.90
51837;DHT22;38941;53.254;6.600;2023-04-12T03:42:06;8.10;99.90
51837;DHT22;38941;53.254;6.600;2023-04-12T03:44:13;8.10;99.90
51837;DHT22;38941;53.254;6.600;2023-04-12T03:46:19;8.60;99.90
51837;DHT22;38941;53.254;6.600;2023-04-12T03:48:27;8.10;99.90
51837;DHT22;38941;53.254;6.600;2023-04-12T03:50:28;8.10;99.90
51837;DHT22;38941;53.254;6.600;2023-04-12T03:52:33;8.10;99.90
51837;DHT22;38941;53.254;6.600;2023-04-12T03:54:34;8.10;99.90
51837;DHT22;38941;53.254;6.600;2023-04-12T03:56:44;8.40;99.90
51837;DHT22;38941;53.254;6.600;2023-04-12T03:58:46;7.90;99.90
51837;DHT22;38941;53.254;6.600;2023-04-12T04:00:53;8.00;99.90
51837;DHT22;38941;53.254;6.600;2023-04-12T04:03:05;8.10;99.90
51837;DHT22;38941;53.254;6.600;2023-04-12T04:05:07;8.10;99.90
51837;DHT22;38941;53.254;6.600;2023-04-12T04:07:10;8.00;99.90
51837;DHT22;38941;53.254;6.600;2023-04-12T04:09:12;8.00;99.90
51837;DHT22;38941;53.254;6.600;2023-04-12T04:11:14;8.00;99.90
51837;DHT22;38941;53.254;6.600;2023-04-12T04:13:31;8.00;99.90
51837;DHT22;38941;53.254;6.600;2023-04-12T04:15:33;8.00;99.90
51837;DHT22;38941;53.254;6.600;2023-04-12T04:17:34;8.00;99.90
51837;DHT22;38941;53.254;6.600;2023-04-12T04:19:44;8.00;99.90
51837;DHT22;38941;53.254;6.600;2023-04-12T04:21:45;8.00;99.90
51837;DHT22;38941;53.254;6.600;2023-04-12T04:23:46;7.60;99.90
51837;DHT22;38941;53.254;6.600;2023-04-12T04:25:53;7.90;99.90
51837;DHT22;38941;53.254;6.600;2023-04-12T04:28:00;7.90;99.90
51837;DHT22;38941;53.254;6.600;2023-04-12T04:30:05;7.10;99.90
51837;DHT22;38941;53.254;6.600;2023-04-12T04:32:06;7.90;99.90
51837;DHT22;38941;53.254;6.600;2023-04-12T04:34:08;7.90;99.90
51837;DHT22;38941;53.254;6.600;2023-04-12T04:36:13;6.80;99.90
51837;DHT22;38941;53.254;6.600;2023-04-12T04:38:15;7.90;99.90
51837;DHT22;38941;53.254;6.600;2023-04-12T04:40:17;6.90;99.90
51837;DHT22;38941;53.254;6.600;2023-04-12T04:42:22;7.80;99.90
51837;DHT22;38941;53.254;6.600;2023-04-12T04:44:32;7.80;99.90
51837;DHT22;38941;53.254;6.600;2023-04-12T04:46:40;7.80;99.90
51837;DHT22;38941;53.254;6.600;2023-04-12T04:48:42;7.80;99.90
51837;DHT22;38941;53.254;6.600;2023-04-12T04:50:44;7.80;99.90
51837;DHT22;38941;53.254;6.600;2023-04-12T04:52:51;7.80;99.90
51837;DHT22;38941;53.254;6.600;2023-04-12T04:55:03;7.80;99.90
51837;DHT22;38941;53.254;6.600;2023-04-12T04:57:04;7.70;99.90
51837;DHT22;38941;53.254;6.600;2023-04-12T04:59:17;7.70;99.90
51837;DHT22;38941;53.254;6.600;2023-04-12T05:01:18;7.50;99.90
51837;DHT22;38941;53.254;6.600;2023-04-12T05:03:28;7.70;99.90
51837;DHT22;38941;53.254;6.600;2023-04-12T05:05:39;7.90;99.90
51837;DHT22;38941;53.254;6.600;2023-04-12T05:07:48;7.60;99.90
51837;DHT22;38941;53.254;6.600;2023-04-12T05:09:49;7.60;99.90
51837;DHT22;38941;53.254;6.600;2023-04-12T05:11:55;7.60;99.90
51837;DHT22;38941;53.254;6.600;2023-04-12T05:14:04;7.50;99.90
51837;DHT22;38941;53.254;6.600;2023-04-12T05:16:08;7.30;99.90
51837;DHT22;38941;53.254;6.600;2023-04-12T05:18:09;7.50;99.90
51837;DHT22;38941;53.254;6.600;2023-04-12T05:20:13;7.50;99.90
51837;DHT22;38941;53.254;6.600;2023-04-12T05:22:14;7.60;99.90
51837;DHT22;38941;53.254;6.600;2023-04-12T05:24:19;7.50;99.90
51837;DHT22;38941;53.254;6.600;2023-04-12T05:26:26;7.50;99.90
51837;DHT22;38941;53.254;6.600;2023-04-12T05:28:29;7.40;99.90
51837;DHT22;38941;53.254;6.600;2023-04-12T05:30:40;7.50;99.90
51837;DHT22;38941;53.254;6.600;2023-04-12T05:32:43;7.40;99.90
51837;DHT22;38941;53.254;6.600;2023-04-12T05:34:44;7.40;99.90
51837;DHT22;38941;53.254;6.600;2023-04-12T05:36:46;7.40;99.90
51837;DHT22;38941;53.254;6.600;2023-04-12T05:39:02;7.50;99.90
51837;DHT22;38941;53.254;6.600;2023-04-12T05:41:03;7.50;99.90
51837;DHT22;38941;53.254;6.600;2023-04-12T05:43:06;7.40;99.90
51837;DHT22;38941;53.254;6.600;2023-04-12T05:45:07;7.60;99.90
51837;DHT22;38941;53.254;6.600;2023-04-12T05:47:10;7.30;99.90
51837;DHT22;38941;53.254;6.600;2023-04-12T05:49:22;7.00;99.90
51837;DHT22;38941;53.254;6.600;2023-04-12T05:51:23;7.30;99.90
51837;DHT22;38941;53.254;6.600;2023-04-12T05:53:41;7.40;99.90
51837;DHT22;38941;53.254;6.600;2023-04-12T05:55:49;7.00;99.90
51837;DHT22;38941;53.254;6.600;2023-04-12T05:57:56;7.40;99.90
51837;DHT22;38941;53.254;6.600;2023-04-12T06:00:10;7.40;99.90
51837;DHT22;38941;53.254;6.600;2023-04-12T06:02:19;7.40;99.90
51837;DHT22;38941;53.254;6.600;2023-04-12T06:04:26;8.10;99.90
51837;DHT22;38941;53.254;6.600;2023-04-12T06:06:43;7.50;99.90
51837;DHT22;38941;53.254;6.600;2023-04-12T06:08:44;7.30;99.90
51837;DHT22;38941;53.254;6.600;2023-04-12T06:10:47;7.30;99.90
51837;DHT22;38941;53.254;6.600;2023-04-12T06:13:11;7.40;99.90
51837;DHT22;38941;53.254;6.600;2023-04-12T06:15:19;7.40;99.90
51837;DHT22;38941;53.254;6.600;2023-04-12T06:17:23;7.30;99.90
51837;DHT22;38941;53.254;6.600;2023-04-12T06:19:25;7.50;99.90
51837;DHT22;38941;53.254;6.600;2023-04-12T06:21:27;7.40;99.90
51837;DHT22;38941;53.254;6.600;2023-04-12T06:23:29;7.40;99.90
51837;DHT22;38941;53.254;6.600;2023-04-12T06:28:25;6.30;99.90
51837;DHT22;38941;53.254;6.600;2023-04-12T06:30:45;7.40;99.90
51837;DHT22;38941;53.254;6.600;2023-04-12T06:33:04;7.40;99.90
51837;DHT22;38941;53.254;6.600;2023-04-12T06:35:13;7.40;99.90
51837;DHT22;38941;53.254;6.600;2023-04-12T06:40:49;7.20;99.90
51837;DHT22;38941;53.254;6.600;2023-04-12T06:42:58;7.40;99.90
51837;DHT22;38941;53.254;6.600;2023-04-12T06:45:03;7.30;99.90
51837;DHT22;38941;53.254;6.600;2023-04-12T06:47:06;7.40;99.90
51837;DHT22;38941;53.254;6.600;2023-04-12T06:49:08;7.40;99.90
51837;DHT22;38941;53.254;6.600;2023-04-12T06:51:11;6.30;99.90
51837;DHT22;38941;53.254;6.600;2023-04-12T06:53:17;7.30;99.90
51837;DHT22;38941;53.254;6.600;2023-04-12T06:55:17;8.30;99.90
51837;DHT22;38941;53.254;6.600;2023-04-12T06:57:19;7.50;99.90
51837;DHT22;38941;53.254;6.600;2023-04-12T06:59:22;7.40;99.90
51837;DHT22;38941;53.254;6.600;2023-04-12T07:01:28;7.50;99.90
51837;DHT22;38941;53.254;6.600;2023-04-12T07:03:29;7.50;99.90
51837;DHT22;38941;53.254;6.600;2023-04-12T07:05:38;7.40;99.90
51837;DHT22;38941;53.254;6.600;2023-04-12T07:07:41;7.30;99.90
51837;DHT22;38941;53.254;6.600;2023-04-12T07:09:42;7.40;99.90
51837;DHT22;38941;53.254;6.600;2023-04-12T07:11:44;7.30;99.90
51837;DHT22;38941;53.254;6.600;2023-04-12T07:13:47;7.40;99.90
51837;DHT22;38941;53.254;6.600;2023-04-12T07:15:52;7.00;99.90
51837;DHT22;38941;53.254;6.600;2023-04-12T07:17:55;7.40;99.90
51837;DHT22;38941;53.254;6.600;2023-04-12T07:19:57;7.40;99.90
51837;DHT22;38941;53.254;6.600;2023-04-12T07:21:59;7.40;99.90
51837;DHT22;38941;53.254;6.600;2023-04-12T07:24:02;7.40;99.90
51837;DHT22;38941;53.254;6.600;2023-04-12T07:26:04;7.40;99.90
51837;DHT22;38941;53.254;6.600;2023-04-12T07:28:12;7.40;99.90
51837;DHT22;38941;53.254;6.600;2023-04-12T07:30:22;6.90;99.90
51837;DHT22;38941;53.254;6.600;2023-04-12T07:32:25;7.40;99.90
51837;DHT22;38941;53.254;6.600;2023-04-12T07:34:26;7.40;99.90
51837;DHT22;38941;53.254;6.600;2023-04-12T07:36:28;7.50;99.90
51837;DHT22;38941;53.254;6.600;2023-04-12T07:38:31;7.50;99.90
51837;DHT22;38941;53.254;6.600;2023-04-12T07:40:34;7.50;99.90
51837;DHT22;38941;53.254;6.600;2023-04-12T07:42:36;7.40;99.90
51837;DHT22;38941;53.254;6.600;2023-04-12T07:44:37;7.40;99.90
51837;DHT22;38941;53.254;6.600;2023-04-12T07:46:40;7.40;99.90
51837;DHT22;38941;53.254;6.600;2023-04-12T07:48:43;7.50;99.90
51837;DHT22;38941;53.254;6.600;2023-04-12T07:50:44;6.80;99.90
51837;DHT22;38941;53.254;6.600;2023-04-12T07:52:48;7.50;99.90
51837;DHT22;38941;53.254;6.600;2023-04-12T07:54:53;7.60;99.90
51837;DHT22;38941;53.254;6.600;2023-04-12T07:57:01;7.50;99.90
51837;DHT22;38941;53.254;6.600;2023-04-12T07:59:03;7.80;99.90
51837;DHT22;38941;53.254;6.600;2023-04-12T08:01:05;6.50;99.90
51837;DHT22;38941;53.254;6.600;2023-04-12T08:03:11;7.50;99.90
51837;DHT22;38941;53.254;6.600;2023-04-12T08:05:21;7.50;99.90
51837;DHT22;38941;53.254;6.600;2023-04-12T08:07:29;7.60;99.90
51837;DHT22;38941;53.254;6.600;2023-04-12T08:09:30;7.60;99.90
51837;DHT22;38941;53.254;6.600;2023-04-12T08:11:32;7.10;99.90
51837;DHT22;38941;53.254;6.600;2023-04-12T08:13:37;7.60;99.90
51837;DHT22;38941;53.254;6.600;2023-04-12T08:15:39;7.60;99.90
51837;DHT22;38941;53.254;6.600;2023-04-12T08:17:42;8.30;99.90
51837;DHT22;38941;53.254;6.600;2023-04-12T08:19:44;7.70;99.90
51837;DHT22;38941;53.254;6.600;2023-04-12T08:21:45;7.70;99.90
51837;DHT22;38941;53.254;6.600;2023-04-12T08:23:47;7.70;99.90
51837;DHT22;38941;53.254;6.600;2023-04-12T08:25:51;7.80;99.90
51837;DHT22;38941;53.254;6.600;2023-04-12T08:28:02;7.80;99.90
51837;DHT22;38941;53.254;6.600;2023-04-12T08:30:03;7.80;99.90
51837;DHT22;38941;53.254;6.600;2023-04-12T08:32:07;7.00;99.90
51837;DHT22;38941;53.254;6.600;2023-04-12T08:34:09;7.90;99.90
51837;DHT22;38941;53.254;6.600;2023-04-12T08:36:11;7.90;99.90
51837;DHT22;38941;53.254;6.600;2023-04-12T08:38:12;7.90;99.90
51837;DHT22;38941;53.254;6.600;2023-04-12T08:40:13;7.80;99.90
51837;DHT22;38941;53.254;6.600;2023-04-12T08:42:15;7.90;99.90
51837;DHT22;38941;53.254;6.600;2023-04-12T08:44:16;8.00;99.90
51837;DHT22;38941;53.254;6.600;2023-04-12T08:46:18;7.90;99.90
51837;DHT22;38941;53.254;6.600;2023-04-12T08:48:21;8.00;99.90
51837;DHT22;38941;53.254;6.600;2023-04-12T08:50:23;8.00;99.90
51837;DHT22;38941;53.254;6.600;2023-04-12T08:52:27;8.00;99.90
51837;DHT22;38941;53.254;6.600;2023-04-12T08:54:29;7.00;99.90
51837;DHT22;38941;53.254;6.600;2023-04-12T08:56:31;8.00;99.90
51837;DHT22;38941;53.254;6.600;2023-04-12T08:58:33;8.00;99.90
51837;DHT22;38941;53.254;6.600;2023-04-12T09:00:36;8.10;99.90
51837;DHT22;38941;53.254;6.600;2023-04-12T09:02:37;8.00;99.90
51837;DHT22;38941;53.254;6.600;2023-04-12T09:04:50;8.00;99.90
51837;DHT22;38941;53.254;6.600;2023-04-12T09:06:54;8.10;99.90
51837;DHT22;38941;53.254;6.600;2023-04-12T09:08:58;8.10;99.90
51837;DHT22;38941;53.254;6.600;2023-04-12T09:11:01;8.20;99.90
51837;DHT22;38941;53.254;6.600;2023-04-12T09:13:08;8.20;99.90
51837;DHT22;38941;53.254;6.600;2023-04-12T09:15:14;8.20;99.90
51837;DHT22;38941;53.254;6.600;2023-04-12T09:17:21;8.20;99.90
51837;DHT22;38941;53.254;6.600;2023-04-12T09:19:31;8.20;99.90
51837;DHT22;38941;53.254;6.600;2023-04-12T09:21:33;8.30;99.90
51837;DHT22;38941;53.254;6.600;2023-04-12T09:23:34;8.30;99.90
51837;DHT22;38941;53.254;6.600;2023-04-12T09:25:42;8.30;99.90
51837;DHT22;38941;53.254;6.600;2023-04-12T09:27:49;8.30;99.90
51837;DHT22;38941;53.254;6.600;2023-04-12T09:29:50;8.60;99.90
51837;DHT22;38941;53.254;6.600;2023-04-12T09:32:09;8.40;99.90
51837;DHT22;38941;53.254;6.600;2023-04-12T09:34:11;8.40;99.90
51837;DHT22;38941;53.254;6.600;2023-04-12T09:36:14;8.40;99.90
51837;DHT22;38941;53.254;6.600;2023-04-12T09:38:16;7.60;99.90
51837;DHT22;38941;53.254;6.600;2023-04-12T09:40:22;8.50;99.90
51837;DHT22;38941;53.254;6.600;2023-04-12T09:42:26;8.50;99.90
51837;DHT22;38941;53.254;6.600;2023-04-12T09:44:28;8.60;99.90
51837;DHT22;38941;53.254;6.600;2023-04-12T09:46:34;8.60;99.90
51837;DHT22;38941;53.254;6.600;2023-04-12T09:48:39;8.60;99.90
51837;DHT22;38941;53.254;6.600;2023-04-12T09:50:40;8.70;99.90
51837;DHT22;38941;53.254;6.600;2023-04-12T09:52:48;8.90;99.90
51837;DHT22;38941;53.254;6.600;2023-04-12T09:54:49;9.00;99.90
51837;DHT22;38941;53.254;6.600;2023-04-12T09:56:51;9.20;99.90
51837;DHT22;38941;53.254;6.600;2023-04-12T09:58:54;9.40;99.90
51837;DHT22;38941;53.254;6.600;2023-04-12T10:00:59;8.60;99.90
51837;DHT22;38941;53.254;6.600;2023-04-12T10:03:02;9.70;99.90
51837;DHT22;38941;53.254;6.600;2023-04-12T10:05:04;9.80;99.90
51837;DHT22;38941;53.254;6.600;2023-04-12T10:07:06;9.90;99.90
51837;DHT22;38941;53.254;6.600;2023-04-12T10:09:07;10.00;99.90
51837;DHT22;38941;53.254;6.600;2023-04-12T10:11:08;9.80;99.90
51837;DHT22;38941;53.254;6.600;2023-04-12T10:13:11;10.10;99.90
51837;DHT22;38941;53.254;6.600;2023-04-12T10:15:14;10.20;99.90
51837;DHT22;38941;53.254;6.600;2023-04-12T10:17:27;10.10;99.90
51837;DHT22;38941;53.254;6.600;2023-04-12T10:25:39;10.10;99.90
51837;DHT22;38941;53.254;6.600;2023-04-12T10:27:45;10.30;99.90
51837;DHT22;38941;53.254;6.600;2023-04-12T10:29:46;10.50;99.90
51837;DHT22;38941;53.254;6.600;2023-04-12T10:31:46;10.50;99.90
51837;DHT22;38941;53.254;6.600;2023-04-12T10:33:48;10.50;99.90
51837;DHT22;38941;53.254;6.600;2023-04-12T10:35:59;10.60;99.90
51837;DHT22;38941;53.254;6.600;2023-04-12T10:38:03;10.80;99.90
51837;DHT22;38941;53.254;6.600;2023-04-12T10:40:04;11.00;99.90
51837;DHT22;38941;53.254;6.600;2023-04-12T10:42:16;11.10;99.90
51837;DHT22;38941;53.254;6.600;2023-04-12T10:44:25;11.40;99.90
51837;DHT22;38941;53.254;6.600;2023-04-12T10:48:51;11.70;99.90
51837;DHT22;38941;53.254;6.600;2023-04-12T10:53:20;12.60;99.90
51837;DHT22;38941;53.254;6.600;2023-04-12T10:55:34;12.70;99.90
51837;DHT22;38941;53.254;6.600;2023-04-12T10:57:45;12.60;99.90
51837;DHT22;38941;53.254;6.600;2023-04-12T10:59:52;12.50;99.90
51837;DHT22;38941;53.254;6.600;2023-04-12T11:02:08;12.40;99.90
51837;DHT22;38941;53.254;6.600;2023-04-12T11:04:16;12.20;99.90
51837;DHT22;38941;53.254;6.600;2023-04-12T11:06:18;12.20;99.90
51837;DHT22;38941;53.254;6.600;2023-04-12T11:08:22;12.10;99.90
51837;DHT22;38941;53.254;6.600;2023-04-12T11:10:25;12.00;99.90
51837;DHT22;38941;53.254;6.600;2023-04-12T11:12:28;11.90;99.90
51837;DHT22;38941;53.254;6.600;2023-04-12T11:19:06;12.10;99.90
51837;DHT22;38941;53.254;6.600;2023-04-12T11:21:09;12.20;99.90
51837;DHT22;38941;53.254;6.600;2023-04-12T11:23:11;12.20;99.90
51837;DHT22;38941;53.254;6.600;2023-04-12T11:25:15;12.20;99.90
51837;DHT22;38941;53.254;6.600;2023-04-12T11:27:19;12.10;99.90
51837;DHT22;38941;53.254;6.600;2023-04-12T11:29:24;12.00;99.90
51837;DHT22;38941;53.254;6.600;2023-04-12T11:31:54;12.00;99.90
51837;DHT22;38941;53.254;6.600;2023-04-12T11:34:05;11.00;99.90
51837;DHT22;38941;53.254;6.600;2023-04-12T11:36:10;12.00;99.90
51837;DHT22;38941;53.254;6.600;2023-04-12T11:38:14;12.00;99.90
51837;DHT22;38941;53.254;6.600;2023-04-12T11:40:29;12.10;99.90
51837;DHT22;38941;53.254;6.600;2023-04-12T11:42:31;11.80;99.90
51837;DHT22;38941;53.254;6.600;2023-04-12T11:44:35;11.30;99.90
51837;DHT22;38941;53.254;6.600;2023-04-12T11:46:36;12.00;99.90
51837;DHT22;38941;53.254;6.600;2023-04-12T11:48:44;11.90;99.90
51837;DHT22;38941;53.254;6.600;2023-04-12T11:50:46;12.00;99.90
51837;DHT22;38941;53.254;6.600;2023-04-12T11:52:53;11.90;99.90
51837;DHT22;38941;53.254;6.600;2023-04-12T11:54:54;11.10;99.90
51837;DHT22;38941;53.254;6.600;2023-04-12T11:57:00;11.90;99.90
51837;DHT22;38941;53.254;6.600;2023-04-12T11:59:02;11.80;99.90
51837;DHT22;38941;53.254;6.600;2023-04-12T12:01:03;11.80;99.90
51837;DHT22;38941;53.254;6.600;2023-04-12T12:03:05;11.80;99.90
51837;DHT22;38941;53.254;6.600;2023-04-12T12:05:06;11.90;99.90
51837;DHT22;38941;53.254;6.600;2023-04-12T12:07:14;12.00;99.90
51837;DHT22;38941;53.254;6.600;2023-04-12T12:09:18;12.20;99.90
51837;DHT22;38941;53.254;6.600;2023-04-12T12:11:20;12.40;99.90
51837;DHT22;38941;53.254;6.600;2023-04-12T12:13:24;12.50;99.90
51837;DHT22;38941;53.254;6.600;2023-04-12T12:15:29;12.60;99.90
51837;DHT22;38941;53.254;6.600;2023-04-12T12:17:35;12.70;99.90
51837;DHT22;38941;53.254;6.600;2023-04-12T12:19:43;12.80;99.90
51837;DHT22;38941;53.254;6.600;2023-04-12T12:21:45;12.70;99.90
51837;DHT22;38941;53.254;6.600;2023-04-12T12:23:47;12.70;99.90
51837;DHT22;38941;53.254;6.600;2023-04-12T12:25:49;12.70;99.90
51837;DHT22;38941;53.254;6.600;2023-04-12T12:27:55;12.70;99.90
51837;DHT22;38941;53.254;6.600;2023-04-12T12:30:00;12.60;99.90
51837;DHT22;38941;53.254;6.600;2023-04-12T12:32:01;12.60;99.90
51837;DHT22;38941;53.254;6.600;2023-04-12T12:34:02;12.60;99.90
51837;DHT22;38941;53.254;6.600;2023-04-12T12:36:07;12.50;99.90
51837;DHT22;38941;53.254;6.600;2023-04-12T12:38:10;12.60;99.90
51837;DHT22;38941;53.254;6.600;2023-04-12T12:40:11;12.50;99.90
51837;DHT22;38941;53.254;6.600;2023-04-12T12:42:16;12.40;99.90
51837;DHT22;38941;53.254;6.600;2023-04-12T12:44:16;12.40;99.90
51837;DHT22;38941;53.254;6.600;2023-04-12T12:46:19;12.10;99.90
51837;DHT22;38941;53.254;6.600;2023-04-12T12:48:20;12.50;99.90
51837;DHT22;38941;53.254;6.600;2023-04-12T12:50:28;12.60;99.90
51837;DHT22;38941;53.254;6.600;2023-04-12T12:52:29;12.90;99.90
51837;DHT22;38941;53.254;6.600;2023-04-12T12:54:33;13.10;99.90
51837;DHT22;38941;53.254;6.600;2023-04-12T12:56:35;13.10;99.90
51837;DHT22;38941;53.254;6.600;2023-04-12T12:58:43;13.10;99.90
51837;DHT22;38941;53.254;6.600;2023-04-12T13:00:52;13.40;99.90
51837;DHT22;38941;53.254;6.600;2023-04-12T13:02:54;13.70;99.90
51837;DHT22;38941;53.254;6.600;2023-04-12T13:04:56;13.80;99.90
51837;DHT22;38941;53.254;6.600;2023-04-12T13:07:03;13.80;99.90
51837;DHT22;38941;53.254;6.600;2023-04-12T13:09:06;13.70;99.90
51837;DHT22;38941;53.254;6.600;2023-04-12T13:11:07;12.90;99.90
51837;DHT22;38941;53.254;6.600;2023-04-12T13:13:08;13.50;99.90
51837;DHT22;38941;53.254;6.600;2023-04-12T13:15:09;13.40;99.90
51837;DHT22;38941;53.254;6.600;2023-04-12T13:17:13;13.40;99.90
51837;DHT22;38941;53.254;6.600;2023-04-12T13:19:19;13.40;99.90
51837;DHT22;38941;53.254;6.600;2023-04-12T13:21:22;13.40;99.90
51837;DHT22;38941;53.254;6.600;2023-04-12T13:23:23;13.40;99.90
51837;DHT22;38941;53.254;6.600;2023-04-12T13:25:25;13.30;99.90
51837;DHT22;38941;53.254;6.600;2023-04-12T13:27:26;13.30;99.90
51837;DHT22;38941;53.254;6.600;2023-04-12T13:29:28;13.20;99.90
51837;DHT22;38941;53.254;6.600;2023-04-12T13:31:28;12.90;99.90
51837;DHT22;38941;53.254;6.600;2023-04-12T13:33:30;12.90;99.90
51837;DHT22;38941;53.254;6.600;2023-04-12T13:35:31;12.90;99.90
51837;DHT22;38941;53.254;6.600;2023-04-12T13:37:36;12.20;99.90
51837;DHT22;38941;53.254;6.600;2023-04-12T13:39:36;12.00;99.90
51837;DHT22;38941;53.254;6.600;2023-04-12T13:41:39;12.60;99.90
51837;DHT22;38941;53.254;6.600;2023-04-12T13:43:41;12.60;99.90
51837;DHT22;38941;53.254;6.600;2023-04-12T13:45:48;12.50;99.90
51837;DHT22;38941;53.254;6.600;2023-04-12T13:47:51;12.50;99.90
51837;DHT22;38941;53.254;6.600;2023-04-12T13:50:02;12.60;99.90
51837;DHT22;38941;53.254;6.600;2023-04-12T13:52:05;12.60;99.90
51837;DHT22;38941;53.254;6.600;2023-04-12T13:54:08;12.60;99.90